createdAt,value
2024-05-09T00:00:15.692Z,6.15
2024-05-09T00:01:23.637Z,6.22
2024-05-09T00:02:26.029Z,6.28
2024-05-09T00:03:30.805Z,6.34
2024-05-09T00:04:32.873Z,6.40
2024-05-09T00:05:35.642Z,6.43
2024-05-09T00:06:40.665Z,6.45
2024-05-09T00:07:42.734Z,6.48
2024-05-09T00:08:47.450Z,6.52
2024-05-09T00:09:49.491Z,6.53
2024-05-09T00:10:54.337Z,6.54
2024-05-09T00:11:56.734Z,6.55
2024-05-09T00:13:01.520Z,6.55
2024-05-09T00:14:06.221Z,6.56
2024-05-09T00:15:11.595Z,6.55
2024-05-09T00:16:13.742Z,6.55
2024-05-09T00:17:18.683Z,6.52
2024-05-09T00:18:21.132Z,6.50
2024-05-09T00:19:26.172Z,6.48
2024-05-09T00:20:36.487Z,6.45
2024-05-09T00:21:45.641Z,6.40
2024-05-09T00:22:47.756Z,6.38
2024-05-09T00:23:49.939Z,6.36
2024-05-09T00:24:54.738Z,6.34
2024-05-09T00:25:56.957Z,6.27
2024-05-09T00:27:01.618Z,6.25
2024-05-09T00:28:04.198Z,6.23
2024-05-09T00:29:11.484Z,6.20
2024-05-09T00:30:20.999Z,6.18
2024-05-09T00:31:29.349Z,6.16
2024-05-09T00:32:31.689Z,6.15
2024-05-09T00:33:36.628Z,6.13
2024-05-09T00:34:38.946Z,6.10
2024-05-09T00:35:44.088Z,6.07
2024-05-09T00:36:46.333Z,6.02
2024-05-09T00:37:51.033Z,5.98
2024-05-09T00:38:53.117Z,5.94
2024-05-09T00:39:58.858Z,5.92
2024-05-09T00:41:01.006Z,5.91
2024-05-09T00:42:06.385Z,5.92
2024-05-09T00:43:08.976Z,5.89
2024-05-09T00:44:16.478Z,5.91
2024-05-09T00:45:18.711Z,5.92
2024-05-09T00:46:23.699Z,5.89
2024-05-09T00:47:25.981Z,5.90
2024-05-09T00:48:31.214Z,5.88
2024-05-09T00:49:34.045Z,5.90
2024-05-09T00:50:41.768Z,5.92
2024-05-09T00:51:44.239Z,5.91
2024-05-09T00:52:49.503Z,5.88
2024-05-09T00:53:51.912Z,5.85
2024-05-09T00:54:56.712Z,5.79
2024-05-09T00:55:59.147Z,5.64
2024-05-09T00:57:02.605Z,5.52
2024-05-09T00:58:08.120Z,5.44
2024-05-09T00:59:10.257Z,5.38
2024-05-09T01:00:26.534Z,5.31
2024-05-09T01:01:34.497Z,5.21
2024-05-09T01:02:39.335Z,5.20
2024-05-09T01:03:41.775Z,5.16
2024-05-09T01:04:46.982Z,5.12
2024-05-09T01:05:49.246Z,5.08
2024-05-09T01:06:53.975Z,5.05
2024-05-09T01:07:56.092Z,4.99
2024-05-09T01:09:00.769Z,4.95
2024-05-09T01:10:03.246Z,4.90
2024-05-09T01:11:09.270Z,4.82
2024-05-09T01:12:11.713Z,4.74
2024-05-09T01:13:13.995Z,4.65
2024-05-09T01:14:18.814Z,4.60
2024-05-09T01:15:23.522Z,4.51
2024-05-09T01:16:28.499Z,4.45
2024-05-09T01:17:31.006Z,4.42
2024-05-09T01:18:35.952Z,4.38
2024-05-09T01:19:38.239Z,4.34
2024-05-09T01:20:44.976Z,4.31
2024-05-09T01:21:47.641Z,4.27
2024-05-09T01:22:53.992Z,4.21
2024-05-09T01:23:58.816Z,4.15
2024-05-09T01:25:03.474Z,4.11
2024-05-09T01:26:05.680Z,4.05
2024-05-09T01:27:10.357Z,4.00
2024-05-09T01:28:12.455Z,3.97
2024-05-09T01:29:17.193Z,3.94
2024-05-09T01:30:24.357Z,3.89
2024-05-09T01:31:32.529Z,3.86
2024-05-09T01:32:34.788Z,3.83
2024-05-09T01:33:39.903Z,3.81
2024-05-09T01:34:42.214Z,3.77
2024-05-09T01:35:47.007Z,3.75
2024-05-09T01:36:49.280Z,3.70
2024-05-09T01:37:53.991Z,3.63
2024-05-09T01:38:58.775Z,3.55
2024-05-09T01:40:03.746Z,3.49
2024-05-09T01:41:06.079Z,3.47
2024-05-09T01:42:08.158Z,3.45
2024-05-09T01:43:12.930Z,3.45
2024-05-09T01:44:15.210Z,3.41
2024-05-09T01:45:19.887Z,3.40
2024-05-09T01:46:22.001Z,3.41
2024-05-09T01:47:26.954Z,3.44
2024-05-09T01:48:29.261Z,3.43
2024-05-09T01:49:38.307Z,3.38
2024-05-09T01:50:42.695Z,3.32
2024-05-09T01:51:48.164Z,3.29
2024-05-09T01:52:50.264Z,3.27
2024-05-09T01:53:56.873Z,3.28
2024-05-09T01:55:05.604Z,3.30
2024-05-09T01:56:12.311Z,3.32
2024-05-09T01:57:14.419Z,3.34
2024-05-09T01:58:19.129Z,3.34
2024-05-09T01:59:21.304Z,3.33
2024-05-09T02:00:36.830Z,3.34
2024-05-09T02:01:56.468Z,3.34
2024-05-09T02:03:00.019Z,3.31
2024-05-09T02:04:04.922Z,3.31
2024-05-09T02:05:07.519Z,3.30
2024-05-09T02:06:12.468Z,3.28
2024-05-09T02:07:14.621Z,3.27
2024-05-09T02:08:20.647Z,3.28
2024-05-09T02:09:23.095Z,3.25
2024-05-09T02:10:32.917Z,3.21
2024-05-09T02:11:41.128Z,3.22
2024-05-09T02:12:46.094Z,3.21
2024-05-09T02:13:48.218Z,3.22
2024-05-09T02:14:54.265Z,3.22
2024-05-09T02:15:56.613Z,3.22
2024-05-09T02:17:01.458Z,3.18
2024-05-09T02:18:04.195Z,3.16
2024-05-09T02:19:09.117Z,3.15
2024-05-09T02:20:18.778Z,3.13
2024-05-09T02:21:34.186Z,3.10
2024-05-09T02:22:36.427Z,3.10
2024-05-09T02:23:41.168Z,3.10
2024-05-09T02:24:43.387Z,3.06
2024-05-09T02:25:50.781Z,3.03
2024-05-09T02:26:52.923Z,2.99
2024-05-09T02:27:57.719Z,2.95
2024-05-09T02:29:00.012Z,2.88
2024-05-09T02:30:09.908Z,2.87
2024-05-09T02:31:17.384Z,2.84
2024-05-09T02:32:22.256Z,2.84
2024-05-09T02:33:24.614Z,2.84
2024-05-09T02:34:26.979Z,2.83
2024-05-09T02:35:32.002Z,2.81
2024-05-09T02:36:34.023Z,2.77
2024-05-09T02:37:36.070Z,2.76
2024-05-09T02:38:39.099Z,2.69
2024-05-09T02:39:43.863Z,2.68
2024-05-09T02:40:48.474Z,2.62
2024-05-09T02:41:50.656Z,2.59
2024-05-09T02:42:52.699Z,2.56
2024-05-09T02:43:54.922Z,2.55
2024-05-09T02:44:59.748Z,2.54
2024-05-09T02:46:01.810Z,2.52
2024-05-09T02:47:04.136Z,2.49
2024-05-09T02:48:07.577Z,2.47
2024-05-09T02:49:12.641Z,2.44
2024-05-09T02:50:19.415Z,2.42
2024-05-09T02:51:28.298Z,2.39
2024-05-09T02:52:32.967Z,2.37
2024-05-09T02:53:35.201Z,2.34
2024-05-09T02:54:37.504Z,2.33
2024-05-09T02:55:40.082Z,2.31
2024-05-09T02:56:47.259Z,2.30
2024-05-09T02:57:49.345Z,2.25
2024-05-09T02:58:51.558Z,2.24
2024-05-09T02:59:56.325Z,2.20
2024-05-09T03:00:58.552Z,2.18
2024-05-09T03:02:00.896Z,2.16
2024-05-09T03:03:05.933Z,2.16
2024-05-09T03:04:08.318Z,2.13
2024-05-09T03:05:11.153Z,2.11
2024-05-09T03:06:15.911Z,2.10
2024-05-09T03:07:20.219Z,2.10
2024-05-09T03:08:22.495Z,2.09
2024-05-09T03:09:28.050Z,2.07
2024-05-09T03:10:35.675Z,2.06
2024-05-09T03:11:40.607Z,2.07
2024-05-09T03:12:45.570Z,2.06
2024-05-09T03:13:50.569Z,2.07
2024-05-09T03:14:52.678Z,2.07
2024-05-09T03:15:54.887Z,2.07
2024-05-09T03:16:57.103Z,2.10
2024-05-09T03:18:03.039Z,2.12
2024-05-09T03:19:05.429Z,2.08
2024-05-09T03:20:17.279Z,2.07
2024-05-09T03:21:28.311Z,2.03
2024-05-09T03:22:30.428Z,2.00
2024-05-09T03:23:32.626Z,2.01
2024-05-09T03:24:34.673Z,2.04
2024-05-09T03:25:39.413Z,2.07
2024-05-09T03:26:41.486Z,2.11
2024-05-09T03:27:46.309Z,2.14
2024-05-09T03:28:48.408Z,2.17
2024-05-09T03:29:53.250Z,2.17
2024-05-09T03:30:55.215Z,2.18
2024-05-09T03:31:57.367Z,2.18
2024-05-09T03:32:59.951Z,2.19
2024-05-09T03:34:04.953Z,2.19
2024-05-09T03:35:07.813Z,2.24
2024-05-09T03:36:11.264Z,2.29
2024-05-09T03:37:16.432Z,2.31
2024-05-09T03:38:18.707Z,2.32
2024-05-09T03:39:20.868Z,2.34
2024-05-09T03:40:28.970Z,2.37
2024-05-09T03:41:32.947Z,2.40
2024-05-09T03:42:40.778Z,2.44
2024-05-09T03:43:49.465Z,2.47
2024-05-09T03:44:52.602Z,2.46
2024-05-09T03:45:54.708Z,2.48
2024-05-09T03:46:59.458Z,2.49
2024-05-09T03:48:01.820Z,2.49
2024-05-09T03:49:04.100Z,2.49
2024-05-09T03:50:14.972Z,2.52
2024-05-09T03:51:22.813Z,2.55
2024-05-09T03:52:24.957Z,2.61
2024-05-09T03:53:27.235Z,2.75
2024-05-09T03:54:31.838Z,2.94
2024-05-09T03:55:33.937Z,3.13
2024-05-09T03:56:36.076Z,3.27
2024-05-09T03:57:41.061Z,3.44
2024-05-09T03:58:43.208Z,3.66
2024-05-09T03:59:47.889Z,3.88
2024-05-09T04:00:50.094Z,4.09
2024-05-09T04:01:54.937Z,4.28
2024-05-09T04:02:57.185Z,4.50
2024-05-09T04:03:59.433Z,4.68
2024-05-09T04:05:01.668Z,4.87
2024-05-09T04:06:07.954Z,5.07
2024-05-09T04:07:10.080Z,5.23
2024-05-09T04:08:12.409Z,5.40
2024-05-09T04:09:17.525Z,5.60
2024-05-09T04:10:27.716Z,5.81
2024-05-09T04:11:35.004Z,6.05
2024-05-09T04:12:40.037Z,6.29
2024-05-09T04:13:42.215Z,6.54
2024-05-09T04:14:44.401Z,6.76
2024-05-09T04:15:49.092Z,6.93
2024-05-09T04:16:53.813Z,7.07
2024-05-09T04:17:56.289Z,7.29
2024-05-09T04:18:58.805Z,7.45
2024-05-09T04:20:03.619Z,7.61
2024-05-09T04:21:06.619Z,7.78
2024-05-09T04:22:08.829Z,7.95
2024-05-09T04:23:15.764Z,8.12
2024-05-09T04:24:17.991Z,8.28
2024-05-09T04:25:20.187Z,8.40
2024-05-09T04:26:22.477Z,8.48
2024-05-09T04:27:27.183Z,8.53
2024-05-09T04:28:29.564Z,8.55
2024-05-09T04:29:32.282Z,8.53
2024-05-09T04:30:38.915Z,8.50
2024-05-09T04:31:48.476Z,8.44
2024-05-09T04:32:51.069Z,8.37
2024-05-09T04:33:53.515Z,8.26
2024-05-09T04:34:58.502Z,8.17
2024-05-09T04:36:00.642Z,8.09
2024-05-09T04:37:03.048Z,8.02
2024-05-09T04:38:05.535Z,7.95
2024-05-09T04:39:10.596Z,7.91
2024-05-09T04:40:24.032Z,7.84
2024-05-09T04:41:33.309Z,7.79
2024-05-09T04:42:38.022Z,7.74
2024-05-09T04:43:40.357Z,7.71
2024-05-09T04:44:42.505Z,7.67
2024-05-09T04:45:44.704Z,7.63
2024-05-09T04:46:49.823Z,7.61
2024-05-09T04:47:55.001Z,7.57
2024-05-09T04:48:57.523Z,7.57
2024-05-09T04:49:59.951Z,7.55
2024-05-09T04:51:02.652Z,7.51
2024-05-09T04:52:08.008Z,7.50
2024-05-09T04:53:11.326Z,7.49
2024-05-09T04:54:25.743Z,7.48
2024-05-09T04:55:35.347Z,7.47
2024-05-09T04:56:37.580Z,7.49
2024-05-09T04:57:40.068Z,7.50
2024-05-09T04:58:44.886Z,7.53
2024-05-09T04:59:47.098Z,7.55
2024-05-09T05:00:49.239Z,7.56
2024-05-09T05:01:56.756Z,7.59
2024-05-09T05:02:59.319Z,7.65
2024-05-09T05:04:01.952Z,7.70
2024-05-09T05:05:04.673Z,7.76
2024-05-09T05:06:09.645Z,7.81
2024-05-09T05:07:12.761Z,7.89
2024-05-09T05:08:15.873Z,7.94
2024-05-09T05:09:18.591Z,8.00
2024-05-09T05:10:29.598Z,8.04
2024-05-09T05:11:37.698Z,8.11
2024-05-09T05:12:58.545Z,8.18
2024-05-09T05:14:00.845Z,8.27
2024-05-09T05:15:05.760Z,8.35
2024-05-09T05:16:07.958Z,8.44
2024-05-09T05:17:15.374Z,8.52
2024-05-09T05:18:18.301Z,8.60
2024-05-09T05:19:20.837Z,8.71
2024-05-09T05:20:30.663Z,8.75
2024-05-09T05:21:38.198Z,8.84
2024-05-09T05:22:43.132Z,8.95
2024-05-09T05:23:45.280Z,9.06
2024-05-09T05:24:47.453Z,9.17
2024-05-09T05:25:53.595Z,9.28
2024-05-09T05:26:56.208Z,9.39
2024-05-09T05:27:58.286Z,9.54
2024-05-09T05:29:00.539Z,9.74
2024-05-09T05:30:07.508Z,9.99
2024-05-09T05:31:11.625Z,10.34
2024-05-09T05:32:16.560Z,10.65
2024-05-09T05:33:22.392Z,10.98
2024-05-09T05:34:24.964Z,11.39
2024-05-09T05:35:27.192Z,11.76
2024-05-09T05:36:32.458Z,12.13
2024-05-09T05:37:35.438Z,12.47
2024-05-09T05:38:37.539Z,12.82
2024-05-09T05:39:42.231Z,13.17
2024-05-09T05:40:44.484Z,13.48
2024-05-09T05:41:46.640Z,13.75
2024-05-09T05:42:51.399Z,13.98
2024-05-09T05:43:53.614Z,14.17
2024-05-09T05:44:55.650Z,14.38
2024-05-09T05:45:57.902Z,14.65
2024-05-09T05:47:02.529Z,14.86
2024-05-09T05:48:08.322Z,15.06
2024-05-09T05:49:10.808Z,15.23
2024-05-09T05:50:23.701Z,15.38
2024-05-09T05:51:32.383Z,15.57
2024-05-09T05:52:34.565Z,15.76
2024-05-09T05:53:36.759Z,15.93
2024-05-09T05:54:41.926Z,16.14
2024-05-09T05:55:44.022Z,16.35
2024-05-09T05:56:46.284Z,16.53
2024-05-09T05:57:51.196Z,16.67
2024-05-09T05:58:53.349Z,16.83
2024-05-09T05:59:55.481Z,16.96
2024-05-09T06:00:57.915Z,17.09
2024-05-09T06:02:02.843Z,17.26
2024-05-09T06:03:08.610Z,17.33
2024-05-09T06:04:11.182Z,17.37
2024-05-09T06:05:13.767Z,17.43
2024-05-09T06:06:18.610Z,17.53
2024-05-09T06:07:20.803Z,17.57
2024-05-09T06:08:23.736Z,17.59
2024-05-09T06:09:26.750Z,17.66
2024-05-09T06:10:38.011Z,17.76
2024-05-09T06:11:42.841Z,17.85
2024-05-09T06:12:44.941Z,17.88
2024-05-09T06:13:47.201Z,17.96
2024-05-09T06:14:52.041Z,18.09
2024-05-09T06:15:55.180Z,18.29
2024-05-09T06:16:58.475Z,18.49
2024-05-09T06:18:03.568Z,18.63
2024-05-09T06:19:08.441Z,18.81
2024-05-09T06:20:20.158Z,19.02
2024-05-09T06:21:26.744Z,19.25
2024-05-09T06:22:31.666Z,19.45
2024-05-09T06:23:34.005Z,19.57
2024-05-09T06:24:36.126Z,19.64
2024-05-09T06:25:38.640Z,19.74
2024-05-09T06:26:44.864Z,19.78
2024-05-09T06:27:47.001Z,19.85
2024-05-09T06:28:49.165Z,19.92
2024-05-09T06:29:51.395Z,19.90
2024-05-09T06:30:56.150Z,19.86
2024-05-09T06:32:00.301Z,19.82
2024-05-09T06:33:02.912Z,19.85
2024-05-09T06:34:05.411Z,19.85
2024-05-09T06:35:12.957Z,19.94
2024-05-09T06:36:15.260Z,20.10
2024-05-09T06:37:17.466Z,20.28
2024-05-09T06:38:19.616Z,20.44
2024-05-09T06:39:24.483Z,20.66
2024-05-09T06:40:35.959Z,20.82
2024-05-09T06:41:40.840Z,20.89
2024-05-09T06:42:45.658Z,21.04
2024-05-09T06:43:47.855Z,21.23
2024-05-09T06:44:50.129Z,21.38
2024-05-09T06:45:53.683Z,21.46
2024-05-09T06:46:59.933Z,21.59
2024-05-09T06:48:02.965Z,21.78
2024-05-09T06:49:08.376Z,21.91
2024-05-09T06:50:28.196Z,22.08
2024-05-09T06:51:39.201Z,22.14
2024-05-09T06:52:41.249Z,22.19
2024-05-09T06:53:43.544Z,22.21
2024-05-09T06:54:45.616Z,22.29
2024-05-09T06:55:50.501Z,22.38
2024-05-09T06:56:52.728Z,22.44
2024-05-09T06:57:55.427Z,22.48
2024-05-09T06:58:57.660Z,22.63
2024-05-09T07:00:02.427Z,22.78
2024-05-09T07:01:05.118Z,22.95
2024-05-09T07:02:07.733Z,23.10
2024-05-09T07:03:14.954Z,23.26
2024-05-09T07:04:19.422Z,23.47
2024-05-09T07:05:24.493Z,23.57
2024-05-09T07:06:26.764Z,23.72
2024-05-09T07:07:31.568Z,23.79
2024-05-09T07:08:33.720Z,23.86
2024-05-09T07:09:36.156Z,24.00
2024-05-09T07:10:38.635Z,24.09
2024-05-09T07:11:43.555Z,24.07
2024-05-09T07:12:45.713Z,24.06
2024-05-09T07:13:47.945Z,24.06
2024-05-09T07:14:52.891Z,24.12
2024-05-09T07:15:55.024Z,24.16
2024-05-09T07:16:57.493Z,24.28
2024-05-09T07:17:59.754Z,24.35
2024-05-09T07:19:04.894Z,24.39
2024-05-09T07:20:11.679Z,24.61
2024-05-09T07:21:16.747Z,24.79
2024-05-09T07:22:19.108Z,24.92
2024-05-09T07:23:23.954Z,24.89
2024-05-09T07:24:26.280Z,24.79
2024-05-09T07:25:28.432Z,24.84
2024-05-09T07:26:30.680Z,24.89
2024-05-09T07:27:35.428Z,25.03
2024-05-09T07:28:37.623Z,25.02
2024-05-09T07:29:39.814Z,24.88
2024-05-09T07:30:44.880Z,24.68
2024-05-09T07:31:47.107Z,24.58
2024-05-09T07:32:49.428Z,24.61
2024-05-09T07:33:54.462Z,24.66
2024-05-09T07:34:56.907Z,24.79
2024-05-09T07:35:59.090Z,24.97
2024-05-09T07:37:12.670Z,25.16
2024-05-09T07:38:15.133Z,25.23
2024-05-09T07:39:17.335Z,25.22
2024-05-09T07:40:28.565Z,25.21
2024-05-09T07:41:39.807Z,25.12
2024-05-09T07:42:41.974Z,25.16
2024-05-09T07:43:44.471Z,25.15
2024-05-09T07:44:46.542Z,25.07
2024-05-09T07:45:54.302Z,25.01
2024-05-09T07:50:55.135Z,24.79
2024-05-09T07:52:23.521Z,24.59
2024-05-09T07:53:21.912Z,24.37
2024-05-09T07:54:30.557Z,23.82
2024-05-09T07:55:33.088Z,23.79
2024-05-09T07:56:38.494Z,23.90
2024-05-09T07:57:40.811Z,24.07
2024-05-09T07:58:43.680Z,24.07
2024-05-09T07:59:45.848Z,24.10
2024-05-09T08:00:50.657Z,24.24
2024-05-09T08:01:52.797Z,24.38
2024-05-09T08:02:55.095Z,24.51
2024-05-09T08:03:57.476Z,24.50
2024-05-09T08:05:02.593Z,24.52
2024-05-09T08:06:05.353Z,24.54
2024-05-09T08:07:07.760Z,24.66
2024-05-09T08:08:11.367Z,24.82
2024-05-09T08:09:21.154Z,24.93
2024-05-09T08:10:28.554Z,25.09
2024-05-09T08:11:32.939Z,25.18
2024-05-09T08:12:37.744Z,25.21
2024-05-09T08:13:39.920Z,25.33
2024-05-09T08:14:41.926Z,25.39
2024-05-09T08:15:46.723Z,25.41
2024-05-09T08:16:48.916Z,25.51
2024-05-09T08:17:51.113Z,25.67
2024-05-09T08:18:56.006Z,25.80
2024-05-09T08:19:58.254Z,25.80
2024-05-09T08:21:00.367Z,25.62
2024-05-09T08:22:07.051Z,25.45
2024-05-09T08:23:11.968Z,25.33
2024-05-09T08:24:19.135Z,25.30
2024-05-09T08:25:21.353Z,25.39
2024-05-09T08:26:26.122Z,25.41
2024-05-09T08:27:28.299Z,25.42
2024-05-09T08:28:30.545Z,25.45
2024-05-09T08:29:36.651Z,25.40
2024-05-09T08:30:38.893Z,25.35
2024-05-09T08:31:41.180Z,25.30
2024-05-09T08:32:45.867Z,25.27
2024-05-09T08:33:51.729Z,25.26
2024-05-09T08:34:54.043Z,25.29
2024-05-09T08:35:56.211Z,25.29
2024-05-09T08:37:03.710Z,25.27
2024-05-09T08:38:14.491Z,25.19
2024-05-09T08:39:19.484Z,25.04
2024-05-09T08:40:30.561Z,25.02
2024-05-09T08:41:40.892Z,24.83
2024-05-09T08:42:48.911Z,24.64
2024-05-09T08:43:51.038Z,24.56
2024-05-09T08:44:53.118Z,24.53
2024-05-09T08:45:58.342Z,24.61
2024-05-09T08:47:00.458Z,24.72
2024-05-09T08:48:05.831Z,24.82
2024-05-09T08:49:08.564Z,24.86
2024-05-09T08:50:24.317Z,24.90
2024-05-09T08:51:34.507Z,24.91
2024-05-09T08:52:37.072Z,24.96
2024-05-09T08:53:41.807Z,24.89
2024-05-09T08:54:46.534Z,24.89
2024-05-09T08:55:49.655Z,25.04
2024-05-09T08:56:51.907Z,25.13
2024-05-09T08:57:56.756Z,25.20
2024-05-09T08:59:01.390Z,25.08
2024-05-09T09:00:10.013Z,25.09
2024-05-09T09:01:17.847Z,25.02
2024-05-09T09:02:21.160Z,24.95
2024-05-09T09:03:27.958Z,24.93
2024-05-09T09:04:34.057Z,25.04
2024-05-09T09:05:38.670Z,25.22
2024-05-09T09:06:41.343Z,25.31
2024-05-09T09:07:48.294Z,25.16
2024-05-09T09:08:53.380Z,25.11
2024-05-09T09:09:58.171Z,25.08
2024-05-09T09:11:00.663Z,24.99
2024-05-09T09:12:06.709Z,24.94
2024-05-09T09:13:11.313Z,24.91
2024-05-09T09:14:13.704Z,24.84
2024-05-09T09:15:18.713Z,24.88
2024-05-09T09:16:21.098Z,24.96
2024-05-09T09:17:23.286Z,25.00
2024-05-09T09:18:26.321Z,25.04
2024-05-09T09:19:31.323Z,25.13
2024-05-09T09:20:36.607Z,25.29
2024-05-09T09:21:39.545Z,25.38
2024-05-09T09:22:44.388Z,25.53
2024-05-09T09:23:46.536Z,25.58
2024-05-09T09:24:49.079Z,25.69
2024-05-09T09:25:56.626Z,25.93
2024-05-09T09:26:58.764Z,26.17
2024-05-09T09:28:01.194Z,26.31
2024-05-09T09:29:06.041Z,26.37
2024-05-09T09:30:15.618Z,26.52
2024-05-09T09:31:25.250Z,26.67
2024-05-09T09:32:31.068Z,26.88
2024-05-09T09:33:35.715Z,26.99
2024-05-09T09:34:38.282Z,26.99
2024-05-09T09:35:41.023Z,26.83
2024-05-09T09:36:45.941Z,26.71
2024-05-09T09:37:50.963Z,26.58
2024-05-09T09:38:53.389Z,26.54
2024-05-09T09:39:55.722Z,26.37
2024-05-09T09:41:04.440Z,26.36
2024-05-09T09:42:06.842Z,26.49
2024-05-09T09:43:12.608Z,26.50
2024-05-09T09:44:19.269Z,26.51
2024-05-09T09:45:21.332Z,26.58
2024-05-09T09:46:24.527Z,26.71
2024-05-09T09:47:27.706Z,26.84
2024-05-09T09:48:34.173Z,26.90
2024-05-09T09:49:36.880Z,27.01
2024-05-09T09:50:39.255Z,27.06
2024-05-09T09:51:44.954Z,27.18
2024-05-09T09:52:47.864Z,27.22
2024-05-09T09:53:50.877Z,27.11
2024-05-09T09:54:56.754Z,26.92
2024-05-09T09:56:02.061Z,26.78
2024-05-09T09:57:05.069Z,26.75
2024-05-09T09:58:09.785Z,26.78
2024-05-09T09:59:17.091Z,26.87
2024-05-09T10:00:26.836Z,27.05
2024-05-09T10:01:34.620Z,27.23
2024-05-09T10:02:36.974Z,27.39
2024-05-09T10:03:42.266Z,27.26
2024-05-09T10:04:44.611Z,27.10
2024-05-09T10:05:47.537Z,26.86
2024-05-09T10:06:52.240Z,26.82
2024-05-09T10:07:57.751Z,26.78
2024-05-09T10:09:00.144Z,26.71
2024-05-09T10:10:02.607Z,26.45
2024-05-09T10:11:08.575Z,26.19
2024-05-09T10:12:14.452Z,26.14
2024-05-09T10:13:16.887Z,26.08
2024-05-09T10:14:21.702Z,26.07
2024-05-09T10:15:24.004Z,26.02
2024-05-09T10:16:33.691Z,25.93
2024-05-09T10:17:36.118Z,25.65
2024-05-09T10:18:38.996Z,25.62
2024-05-09T10:19:44.102Z,25.87
2024-05-09T10:20:46.828Z,26.18
2024-05-09T10:21:51.692Z,26.26
2024-05-09T10:22:54.002Z,26.31
2024-05-09T10:24:00.015Z,26.43
2024-05-09T10:25:09.707Z,26.51
2024-05-09T10:26:14.496Z,26.58
2024-05-09T10:27:16.769Z,26.70
2024-05-09T10:28:20.395Z,26.82
2024-05-09T10:29:26.431Z,26.90
2024-05-09T10:30:36.080Z,27.11
2024-05-09T10:31:41.389Z,27.21
2024-05-09T10:32:47.697Z,27.22
2024-05-09T10:33:52.226Z,27.20
2024-05-09T10:35:01.974Z,27.30
2024-05-09T10:36:04.763Z,27.10
2024-05-09T10:37:09.964Z,27.05
2024-05-09T10:38:12.868Z,27.11
2024-05-09T10:39:15.527Z,27.06
2024-05-09T10:40:25.899Z,26.88
2024-05-09T10:41:36.739Z,26.85
2024-05-09T10:42:39.773Z,26.84
2024-05-09T10:43:42.510Z,26.89
2024-05-09T10:44:44.576Z,26.95
2024-05-09T10:45:52.498Z,26.93
2024-05-09T10:46:55.280Z,26.96
2024-05-09T10:47:57.779Z,27.03
2024-05-09T10:49:03.305Z,27.06
2024-05-09T10:50:18.070Z,26.86
2024-05-09T10:51:24.829Z,26.65
2024-05-09T10:52:27.120Z,26.47
2024-05-09T10:53:29.249Z,26.34
2024-05-09T10:54:38.532Z,26.25
2024-05-09T10:55:40.932Z,26.14
2024-05-09T10:56:48.357Z,25.99
2024-05-09T10:57:50.623Z,25.81
2024-05-09T10:58:55.669Z,25.66
2024-05-09T11:00:00.038Z,25.49
2024-05-09T11:01:05.645Z,25.38
2024-05-09T11:02:10.175Z,25.36
2024-05-09T11:03:16.561Z,25.37
2024-05-09T11:04:19.087Z,25.41
2024-05-09T11:05:21.716Z,25.34
2024-05-09T11:06:24.030Z,25.35
2024-05-09T11:07:28.794Z,25.40
2024-05-09T11:08:31.891Z,25.41
2024-05-09T11:09:39.025Z,25.35
2024-05-09T11:10:42.205Z,25.34
2024-05-09T11:11:49.803Z,25.47
2024-05-09T11:12:52.374Z,25.61
2024-05-09T11:13:54.659Z,25.54
2024-05-09T11:14:56.805Z,25.46
2024-05-09T11:16:02.176Z,25.41
2024-05-09T11:17:06.419Z,25.37
2024-05-09T11:18:09.120Z,25.41
2024-05-09T11:19:15.826Z,25.48
2024-05-09T11:20:26.439Z,25.58
2024-05-09T11:21:31.895Z,25.69
2024-05-09T11:22:34.204Z,25.68
2024-05-09T11:23:38.851Z,25.62
2024-05-09T11:24:41.270Z,25.62
2024-05-09T11:25:48.728Z,25.53
2024-05-09T11:26:53.509Z,25.59
2024-05-09T11:28:01.534Z,25.62
2024-05-09T11:29:03.811Z,25.77
2024-05-09T11:30:24.336Z,25.92
2024-05-09T11:31:37.278Z,25.89
2024-05-09T11:32:39.419Z,26.00
2024-05-09T11:33:44.688Z,26.26
2024-05-09T11:34:49.565Z,26.49
2024-05-09T11:35:51.950Z,26.70
2024-05-09T11:36:54.225Z,26.87
2024-05-09T11:37:56.516Z,26.97
2024-05-09T11:39:01.366Z,27.08
2024-05-09T11:40:06.802Z,27.24
2024-05-09T11:41:09.379Z,27.39
2024-05-09T11:42:14.358Z,27.51
2024-05-09T11:43:16.807Z,27.68
2024-05-09T11:44:21.692Z,27.66
2024-05-09T11:45:23.882Z,27.72
2024-05-09T11:46:26.129Z,27.80
2024-05-09T11:47:31.013Z,27.81
2024-05-09T11:48:33.357Z,27.74
2024-05-09T11:49:36.127Z,27.74
2024-05-09T11:50:39.154Z,27.70
2024-05-09T11:51:44.105Z,27.66
2024-05-09T11:52:46.174Z,27.68
2024-05-09T11:53:48.389Z,27.69
2024-05-09T11:54:53.308Z,27.77
2024-05-09T11:55:55.508Z,27.63
2024-05-09T11:56:57.922Z,27.52
2024-05-09T11:58:05.455Z,27.43
2024-05-09T11:59:10.109Z,27.44
2024-05-09T12:00:18.236Z,27.53
2024-05-09T12:01:28.015Z,27.88
2024-05-09T12:02:30.877Z,28.22
2024-05-09T12:03:37.972Z,28.59
2024-05-09T12:04:40.372Z,28.92
2024-05-09T12:05:42.791Z,28.88
2024-05-09T12:06:46.430Z,28.82
2024-05-09T12:07:51.261Z,28.73
2024-05-09T12:08:53.676Z,28.82
2024-05-09T12:09:55.920Z,28.79
2024-05-09T12:10:58.829Z,28.68
2024-05-09T12:12:03.568Z,28.64
2024-05-09T12:13:08.565Z,28.62
2024-05-09T12:14:10.671Z,28.76
2024-05-09T12:15:15.571Z,28.88
2024-05-09T12:16:17.992Z,28.84
2024-05-09T12:17:20.456Z,28.71
2024-05-09T12:18:22.851Z,28.47
2024-05-09T12:19:27.829Z,28.37
2024-05-09T12:20:36.455Z,28.49
2024-05-09T12:21:41.363Z,28.59
2024-05-09T12:22:47.557Z,28.61
2024-05-09T12:23:49.754Z,28.55
2024-05-09T12:24:51.969Z,28.49
2024-05-09T12:25:54.144Z,28.38
2024-05-09T12:26:58.995Z,28.43
2024-05-09T12:28:01.449Z,28.61
2024-05-09T12:29:07.128Z,28.75
2024-05-09T12:30:20.626Z,28.82
2024-05-09T12:31:27.529Z,28.69
2024-05-09T12:32:29.822Z,28.84
2024-05-09T12:33:34.736Z,29.08
2024-05-09T12:34:38.199Z,29.24
2024-05-09T12:35:40.506Z,29.08
2024-05-09T12:36:42.765Z,28.99
2024-05-09T12:37:47.570Z,28.87
2024-05-09T12:38:50.140Z,28.84
2024-05-09T12:39:52.324Z,28.79
2024-05-09T12:40:54.613Z,28.68
2024-05-09T12:41:59.806Z,28.70
2024-05-09T12:43:01.823Z,28.82
2024-05-09T12:44:06.484Z,28.90
2024-05-09T12:45:09.011Z,28.90
2024-05-09T12:46:13.946Z,28.90
2024-05-09T12:47:16.225Z,28.72
2024-05-09T12:48:18.442Z,28.58
2024-05-09T12:49:21.973Z,28.43
2024-05-09T12:50:32.429Z,28.15
2024-05-09T12:51:36.404Z,27.73
2024-05-09T12:52:38.500Z,27.28
2024-05-09T12:53:43.137Z,26.89
2024-05-09T12:54:45.302Z,26.68
2024-05-09T12:55:53.810Z,26.43
2024-05-09T12:56:59.547Z,26.13
2024-05-09T12:58:04.389Z,26.02
2024-05-09T12:59:09.182Z,25.94
2024-05-09T13:00:20.669Z,26.09
2024-05-09T13:01:32.511Z,26.34
2024-05-09T13:02:35.158Z,26.24
2024-05-09T13:03:37.457Z,26.09
2024-05-09T13:04:42.429Z,25.86
2024-05-09T13:05:45.666Z,25.71
2024-05-09T13:06:49.384Z,25.92
2024-05-09T13:07:54.488Z,26.13
2024-05-09T13:08:56.542Z,26.41
2024-05-09T13:09:58.775Z,26.65
2024-05-09T13:11:01.220Z,26.86
2024-05-09T13:12:06.112Z,27.19
2024-05-09T13:13:09.336Z,27.52
2024-05-09T13:14:14.271Z,27.84
2024-05-09T13:15:18.945Z,28.12
2024-05-09T13:16:21.375Z,28.47
2024-05-09T13:17:23.932Z,28.69
2024-05-09T13:18:26.098Z,29.05
2024-05-09T13:19:30.911Z,29.31
2024-05-09T13:20:35.444Z,29.42
2024-05-09T13:21:38.277Z,29.50
2024-05-09T13:22:40.583Z,29.76
2024-05-09T13:23:45.646Z,30.00
2024-05-09T13:24:47.915Z,30.20
2024-05-09T13:25:50.026Z,30.42
2024-05-09T13:26:54.920Z,30.62
2024-05-09T13:27:57.434Z,30.71
2024-05-09T13:28:59.664Z,30.85
2024-05-09T13:30:07.799Z,30.76
2024-05-09T13:31:16.484Z,30.62
2024-05-09T13:32:18.824Z,30.45
2024-05-09T13:33:21.081Z,30.40
2024-05-09T13:34:23.324Z,30.34
2024-05-09T13:35:28.060Z,30.35
2024-05-09T13:36:30.241Z,30.43
2024-05-09T13:37:33.164Z,30.52
2024-05-09T13:38:35.359Z,30.66
2024-05-09T13:39:40.128Z,30.81
2024-05-09T13:40:42.522Z,30.79
2024-05-09T13:41:44.758Z,30.63
2024-05-09T13:42:48.669Z,30.42
2024-05-09T13:43:53.700Z,30.24
2024-05-09T13:44:55.898Z,29.96
2024-05-09T13:46:00.899Z,29.52
2024-05-09T13:47:03.248Z,29.20
2024-05-09T13:48:09.900Z,28.81
2024-05-09T13:49:16.905Z,28.44
2024-05-09T13:50:28.096Z,28.14
2024-05-09T13:51:38.598Z,27.86
2024-05-09T13:52:40.731Z,27.64
2024-05-09T13:53:42.929Z,27.33
2024-05-09T13:54:45.005Z,26.99
2024-05-09T13:55:49.905Z,26.82
2024-05-09T13:56:52.324Z,26.65
2024-05-09T13:57:54.693Z,26.61
2024-05-09T13:58:56.748Z,26.55
2024-05-09T14:00:01.499Z,26.48
2024-05-09T14:01:16.170Z,26.47
2024-05-09T14:02:18.897Z,26.50
2024-05-09T14:03:21.546Z,26.48
2024-05-09T14:04:26.792Z,26.36